sensor_id;sensor_type;location;lat;lon;timestamp;pressure;altitude;pressure_sealevel;temperature;humidity
10946;BME280;5525;42.648;23.368;2024-02-16T00:01:59;95277.00;;;3.00;100.00
10946;BME280;5525;42.648;23.368;2024-02-16T00:04:26;95276.69;;;2.87;100.00
10946;BME280;5525;42.648;23.368;2024-02-16T00:06:53;95282.81;;;2.82;100.00
10946;BME280;5525;42.648;23.368;2024-02-16T00:09:20;95260.56;;;2.52;100.00
10946;BME280;5525;42.648;23.368;2024-02-16T00:11:48;95276.59;;;2.57;100.00
10946;BME280;5525;42.648;23.368;2024-02-16T00:14:16;95265.69;;;2.68;100.00
10946;BME280;5525;42.648;23.368;2024-02-16T00:16:43;95273.41;;;2.65;100.00
10946;BME280;5525;42.648;23.368;2024-02-16T00:19:10;95277.88;;;2.54;100.00
10946;BME280;5525;42.648;23.368;2024-02-16T00:21:36;95273.88;;;2.52;100.00
10946;BME280;5525;42.648;23.368;2024-02-16T00:24:05;95279.19;;;2.47;100.00
10946;BME280;5525;42.648;23.368;2024-02-16T00:26:32;95280.72;;;2.38;100.00
10946;BME280;5525;42.648;23.368;2024-02-16T00:29:01;95276.72;;;2.40;100.00
10946;BME280;5525;42.648;23.368;2024-02-16T00:31:27;95279.47;;;2.50;100.00
10946;BME280;5525;42.648;23.368;2024-02-16T00:33:55;95286.25;;;1.90;100.00
10946;BME280;5525;42.648;23.368;2024-02-16T00:36:22;95284.34;;;1.85;100.00
10946;BME280;5525;42.648;23.368;2024-02-16T00:38:49;95283.84;;;1.88;100.00
10946;BME280;5525;42.648;23.368;2024-02-16T00:41:19;95281.63;;;1.80;100.00
10946;BME280;5525;42.648;23.368;2024-02-16T00:43:47;95286.75;;;1.87;100.00
10946;BME280;5525;42.648;23.368;2024-02-16T00:46:16;95280.97;;;1.95;100.00
10946;BME280;5525;42.648;23.368;2024-02-16T00:48:42;95280.50;;;2.03;100.00
10946;BME280;5525;42.648;23.368;2024-02-16T00:51:09;95285.31;;;2.06;100.00
10946;BME280;5525;42.648;23.368;2024-02-16T00:53:36;95285.88;;;1.76;100.00
10946;BME280;5525;42.648;23.368;2024-02-16T00:56:03;95291.16;;;1.71;100.00
10946;BME280;5525;42.648;23.368;2024-02-16T00:58:30;95286.06;;;1.64;100.00
10946;BME280;5525;42.648;23.368;2024-02-16T01:00:57;95296.28;;;1.77;100.00
10946;BME280;5525;42.648;23.368;2024-02-16T01:03:25;95292.53;;;1.78;100.00
10946;BME280;5525;42.648;23.368;2024-02-16T01:05:52;95291.28;;;1.86;100.00
10946;BME280;5525;42.648;23.368;2024-02-16T01:08:19;95290.38;;;1.70;100.00
10946;BME280;5525;42.648;23.368;2024-02-16T01:10:46;95286.38;;;1.73;100.00
10946;BME280;5525;42.648;23.368;2024-02-16T01:13:13;95287.56;;;1.87;100.00
10946;BME280;5525;42.648;23.368;2024-02-16T01:15:40;95285.78;;;1.98;100.00
10946;BME280;5525;42.648;23.368;2024-02-16T01:18:07;95277.59;;;2.09;100.00
10946;BME280;5525;42.648;23.368;2024-02-16T01:20:35;95284.53;;;2.10;100.00
10946;BME280;5525;42.648;23.368;2024-02-16T01:23:02;95278.16;;;2.11;100.00
10946;BME280;5525;42.648;23.368;2024-02-16T01:25:30;95283.94;;;1.98;100.00
10946;BME280;5525;42.648;23.368;2024-02-16T01:27:57;95276.19;;;1.97;100.00
10946;BME280;5525;42.648;23.368;2024-02-16T01:30:24;95272.03;;;2.11;100.00
10946;BME280;5525;42.648;23.368;2024-02-16T01:32:51;95268.81;;;2.09;100.00
10946;BME280;5525;42.648;23.368;2024-02-16T01:35:18;95275.44;;;2.06;100.00
10946;BME280;5525;42.648;23.368;2024-02-16T01:37:46;95278.72;;;2.13;100.00
10946;BME280;5525;42.648;23.368;2024-02-16T01:40:13;95269.94;;;2.18;100.00
10946;BME280;5525;42.648;23.368;2024-02-16T01:42:42;95267.53;;;2.16;100.00
10946;BME280;5525;42.648;23.368;2024-02-16T01:45:10;95265.56;;;2.02;100.00
10946;BME280;5525;42.648;23.368;2024-02-16T01:47:38;95263.25;;;2.10;100.00
10946;BME280;5525;42.648;23.368;2024-02-16T01:50:06;95264.28;;;2.09;100.00
10946;BME280;5525;42.648;23.368;2024-02-16T01:52:33;95270.69;;;2.08;100.00
10946;BME280;5525;42.648;23.368;2024-02-16T01:55:03;95262.22;;;2.16;100.00
10946;BME280;5525;42.648;23.368;2024-02-16T01:57:31;95266.47;;;2.12;100.00
10946;BME280;5525;42.648;23.368;2024-02-16T01:59:58;95256.78;;;2.01;100.00
10946;BME280;5525;42.648;23.368;2024-02-16T02:02:26;95263.44;;;2.04;100.00
10946;BME280;5525;42.648;23.368;2024-02-16T02:04:53;95259.72;;;2.05;100.00
10946;BME280;5525;42.648;23.368;2024-02-16T02:07:25;95256.66;;;1.86;100.00
10946;BME280;5525;42.648;23.368;2024-02-16T02:09:52;95265.25;;;1.93;100.00
10946;BME280;5525;42.648;23.368;2024-02-16T02:12:20;95251.31;;;1.81;100.00
10946;BME280;5525;42.648;23.368;2024-02-16T02:14:47;95256.59;;;1.76;100.00
10946;BME280;5525;42.648;23.368;2024-02-16T02:17:14;95258.19;;;1.77;100.00
10946;BME280;5525;42.648;23.368;2024-02-16T02:19:41;95254.91;;;1.65;100.00
10946;BME280;5525;42.648;23.368;2024-02-16T02:22:14;95267.31;;;1.54;100.00
10946;BME280;5525;42.648;23.368;2024-02-16T02:24:41;95256.50;;;1.34;100.00
10946;BME280;5525;42.648;23.368;2024-02-16T02:27:09;95265.81;;;1.37;100.00
10946;BME280;5525;42.648;23.368;2024-02-16T02:29:36;95264.94;;;1.00;100.00
10946;BME280;5525;42.648;23.368;2024-02-16T02:32:03;95269.78;;;1.08;100.00
10946;BME280;5525;42.648;23.368;2024-02-16T02:34:30;95264.13;;;0.99;100.00
10946;BME280;5525;42.648;23.368;2024-02-16T02:36:57;95264.91;;;1.21;100.00
10946;BME280;5525;42.648;23.368;2024-02-16T02:39:25;95268.75;;;1.09;100.00
10946;BME280;5525;42.648;23.368;2024-02-16T02:41:52;95269.59;;;1.14;100.00
10946;BME280;5525;42.648;23.368;2024-02-16T02:44:19;95265.19;;;1.25;100.00
10946;BME280;5525;42.648;23.368;2024-02-16T02:46:46;95263.38;;;1.30;100.00
10946;BME280;5525;42.648;23.368;2024-02-16T02:49:12;95260.97;;;1.29;100.00
10946;BME280;5525;42.648;23.368;2024-02-16T02:51:39;95260.25;;;1.38;100.00
10946;BME280;5525;42.648;23.368;2024-02-16T02:54:06;95254.19;;;1.43;100.00
10946;BME280;5525;42.648;23.368;2024-02-16T02:56:34;95258.91;;;1.36;100.00
10946;BME280;5525;42.648;23.368;2024-02-16T02:59:01;95257.69;;;1.22;100.00
10946;BME280;5525;42.648;23.368;2024-02-16T03:01:30;95263.22;;;1.15;100.00
10946;BME280;5525;42.648;23.368;2024-02-16T03:03:56;95267.03;;;0.98;100.00
10946;BME280;5525;42.648;23.368;2024-02-16T03:06:25;95269.16;;;0.74;100.00
10946;BME280;5525;42.648;23.368;2024-02-16T03:08:52;95267.38;;;1.06;100.00
10946;BME280;5525;42.648;23.368;2024-02-16T03:11:20;95263.78;;;1.17;100.00
10946;BME280;5525;42.648;23.368;2024-02-16T03:13:48;95261.88;;;1.13;100.00
10946;BME280;5525;42.648;23.368;2024-02-16T03:16:15;95271.56;;;1.24;100.00
10946;BME280;5525;42.648;23.368;2024-02-16T03:18:41;95265.56;;;1.38;100.00
10946;BME280;5525;42.648;23.368;2024-02-16T03:21:08;95268.03;;;1.45;100.00
10946;BME280;5525;42.648;23.368;2024-02-16T03:23:40;95257.44;;;1.50;100.00
10946;BME280;5525;42.648;23.368;2024-02-16T03:26:13;95256.56;;;1.39;100.00
10946;BME280;5525;42.648;23.368;2024-02-16T03:28:40;95256.88;;;1.43;100.00
10946;BME280;5525;42.648;23.368;2024-02-16T03:31:15;95268.72;;;1.62;100.00
10946;BME280;5525;42.648;23.368;2024-02-16T03:33:42;95255.09;;;1.58;100.00
10946;BME280;5525;42.648;23.368;2024-02-16T03:36:09;95262.88;;;1.33;100.00
10946;BME280;5525;42.648;23.368;2024-02-16T03:38:36;95266.25;;;1.24;100.00
10946;BME280;5525;42.648;23.368;2024-02-16T03:41:03;95261.00;;;1.34;100.00
10946;BME280;5525;42.648;23.368;2024-02-16T03:43:30;95273.06;;;1.41;100.00
10946;BME280;5525;42.648;23.368;2024-02-16T03:45:57;95267.50;;;1.16;100.00
10946;BME280;5525;42.648;23.368;2024-02-16T03:48:25;95265.19;;;1.25;100.00
10946;BME280;5525;42.648;23.368;2024-02-16T03:50:52;95256.09;;;1.21;100.00
10946;BME280;5525;42.648;23.368;2024-02-16T03:53:19;95263.66;;;1.34;100.00
10946;BME280;5525;42.648;23.368;2024-02-16T03:55:46;95267.97;;;1.40;100.00
10946;BME280;5525;42.648;23.368;2024-02-16T03:58:13;95270.19;;;1.48;100.00
10946;BME280;5525;42.648;23.368;2024-02-16T04:00:39;95263.66;;;1.34;100.00
10946;BME280;5525;42.648;23.368;2024-02-16T04:03:06;95268.47;;;1.37;100.00
10946;BME280;5525;42.648;23.368;2024-02-16T04:05:38;95262.25;;;1.53;100.00
10946;BME280;5525;42.648;23.368;2024-02-16T04:08:05;95260.50;;;1.37;100.00
10946;BME280;5525;42.648;23.368;2024-02-16T04:10:32;95258.72;;;1.16;100.00
10946;BME280;5525;42.648;23.368;2024-02-16T04:12:59;95268.47;;;1.37;100.00
10946;BME280;5525;42.648;23.368;2024-02-16T04:15:26;95262.31;;;1.31;100.00
10946;BME280;5525;42.648;23.368;2024-02-16T04:17:53;95258.56;;;1.27;100.00
10946;BME280;5525;42.648;23.368;2024-02-16T04:20:20;95263.41;;;1.35;100.00
10946;BME280;5525;42.648;23.368;2024-02-16T04:22:48;95260.50;;;1.37;100.00
10946;BME280;5525;42.648;23.368;2024-02-16T04:25:15;95262.72;;;1.45;100.00
10946;BME280;5525;42.648;23.368;2024-02-16T04:27:42;95266.78;;;1.52;100.00
10946;BME280;5525;42.648;23.368;2024-02-16T04:30:09;95260.09;;;1.50;100.00
10946;BME280;5525;42.648;23.368;2024-02-16T04:32:36;95259.97;;;1.66;100.00
10946;BME280;5525;42.648;23.368;2024-02-16T04:35:03;95251.31;;;1.49;100.00
10946;BME280;5525;42.648;23.368;2024-02-16T04:37:30;95262.91;;;1.38;100.00
10946;BME280;5525;42.648;23.368;2024-02-16T04:39:58;95268.28;;;1.43;100.00
10946;BME280;5525;42.648;23.368;2024-02-16T04:42:25;95266.13;;;1.40;100.00
10946;BME280;5525;42.648;23.368;2024-02-16T04:44:52;95262.19;;;1.43;100.00
10946;BME280;5525;42.648;23.368;2024-02-16T04:47:18;95271.25;;;1.47;100.00
10946;BME280;5525;42.648;23.368;2024-02-16T04:49:45;95268.34;;;1.22;100.00
10946;BME280;5525;42.648;23.368;2024-02-16T04:52:12;95265.03;;;1.36;100.00
10946;BME280;5525;42.648;23.368;2024-02-16T04:54:39;95267.47;;;0.90;100.00
10946;BME280;5525;42.648;23.368;2024-02-16T04:57:07;95284.91;;;0.38;100.00
10946;BME280;5525;42.648;23.368;2024-02-16T04:59:34;95286.00;;;0.42;100.00
10946;BME280;5525;42.648;23.368;2024-02-16T05:02:01;95285.72;;;0.38;100.00
10946;BME280;5525;42.648;23.368;2024-02-16T05:04:29;95285.28;;;0.08;100.00
10946;BME280;5525;42.648;23.368;2024-02-16T05:06:56;95287.88;;;0.03;100.00
10946;BME280;5525;42.648;23.368;2024-02-16T05:09:23;95290.03;;;0.06;100.00
10946;BME280;5525;42.648;23.368;2024-02-16T05:11:52;95289.03;;;0.29;100.00
10946;BME280;5525;42.648;23.368;2024-02-16T05:14:20;95297.69;;;0.41;100.00
10946;BME280;5525;42.648;23.368;2024-02-16T05:16:47;95300.09;;;0.42;100.00
10946;BME280;5525;42.648;23.368;2024-02-16T05:19:14;95300.09;;;0.42;100.00
10946;BME280;5525;42.648;23.368;2024-02-16T05:21:41;95307.00;;;0.43;100.00
10946;BME280;5525;42.648;23.368;2024-02-16T05:24:08;95310.66;;;0.59;100.00
10946;BME280;5525;42.648;23.368;2024-02-16T05:26:34;95314.72;;;0.45;100.00
10946;BME280;5525;42.648;23.368;2024-02-16T05:29:02;95314.22;;;0.64;100.00
10946;BME280;5525;42.648;23.368;2024-02-16T05:31:31;95313.28;;;0.54;100.00
10946;BME280;5525;42.648;23.368;2024-02-16T05:33:57;95316.34;;;0.46;100.00
10946;BME280;5525;42.648;23.368;2024-02-16T05:36:24;95316.59;;;0.44;100.00
10946;BME280;5525;42.648;23.368;2024-02-16T05:38:53;95315.41;;;0.35;100.00
10946;BME280;5525;42.648;23.368;2024-02-16T05:41:21;95315.06;;;0.48;100.00
10946;BME280;5525;42.648;23.368;2024-02-16T05:43:48;95302.34;;;0.50;100.00
10946;BME280;5525;42.648;23.368;2024-02-16T05:46:16;95322.84;;;0.55;100.00
10946;BME280;5525;42.648;23.368;2024-02-16T05:48:44;95316.28;;;0.41;100.00
10946;BME280;5525;42.648;23.368;2024-02-16T05:51:12;95326.81;;;0.52;100.00
10946;BME280;5525;42.648;23.368;2024-02-16T05:53:39;95315.97;;;0.59;100.00
10946;BME280;5525;42.648;23.368;2024-02-16T05:56:06;95324.66;;;0.49;100.00
10946;BME280;5525;42.648;23.368;2024-02-16T05:58:35;95322.69;;;0.61;100.00
10946;BME280;5525;42.648;23.368;2024-02-16T06:01:02;95325.50;;;0.55;100.00
10946;BME280;5525;42.648;23.368;2024-02-16T06:03:29;95320.56;;;0.63;100.00
10946;BME280;5525;42.648;23.368;2024-02-16T06:05:57;95335.72;;;0.63;100.00
10946;BME280;5525;42.648;23.368;2024-02-16T06:08:24;95332.88;;;0.48;100.00
10946;BME280;5525;42.648;23.368;2024-02-16T06:10:51;95328.59;;;0.47;100.00
10946;BME280;5525;42.648;23.368;2024-02-16T06:13:20;95335.06;;;0.72;100.00
10946;BME280;5525;42.648;23.368;2024-02-16T06:15:47;95328.38;;;0.91;100.00
10946;BME280;5525;42.648;23.368;2024-02-16T06:18:14;95332.63;;;0.92;100.00
10946;BME280;5525;42.648;23.368;2024-02-16T06:20:41;95336.34;;;0.91;100.00
10946;BME280;5525;42.648;23.368;2024-02-16T06:23:09;95338.06;;;1.24;100.00
10946;BME280;5525;42.648;23.368;2024-02-16T06:25:36;95345.78;;;1.25;100.00
10946;BME280;5525;42.648;23.368;2024-02-16T06:28:03;95344.44;;;1.23;100.00
10946;BME280;5525;42.648;23.368;2024-02-16T06:30:30;95339.63;;;1.46;100.00
10946;BME280;5525;42.648;23.368;2024-02-16T06:32:57;95339.63;;;1.73;100.00
10946;BME280;5525;42.648;23.368;2024-02-16T06:35:24;95335.81;;;1.96;100.00
10946;BME280;5525;42.648;23.368;2024-02-16T06:37:51;95343.44;;;2.14;100.00
10946;BME280;5525;42.648;23.368;2024-02-16T06:40:20;95340.06;;;2.28;100.00
10946;BME280;5525;42.648;23.368;2024-02-16T06:42:47;95334.72;;;1.92;100.00
10946;BME280;5525;42.648;23.368;2024-02-16T06:45:14;95335.53;;;1.92;100.00
10946;BME280;5525;42.648;23.368;2024-02-16T06:47:40;95333.75;;;2.03;100.00
10946;BME280;5525;42.648;23.368;2024-02-16T06:50:08;95326.09;;;2.11;100.00
10946;BME280;5525;42.648;23.368;2024-02-16T06:52:35;95342.69;;;2.23;100.00
10946;BME280;5525;42.648;23.368;2024-02-16T06:55:02;95330.50;;;2.32;100.00
10946;BME280;5525;42.648;23.368;2024-02-16T06:57:30;95329.00;;;2.46;100.00
10946;BME280;5525;42.648;23.368;2024-02-16T06:59:57;95325.81;;;2.49;100.00
10946;BME280;5525;42.648;23.368;2024-02-16T07:02:24;95333.94;;;2.69;100.00
10946;BME280;5525;42.648;23.368;2024-02-16T07:04:50;95329.69;;;2.68;100.00
10946;BME280;5525;42.648;23.368;2024-02-16T07:07:17;95334.31;;;2.83;100.00
10946;BME280;5525;42.648;23.368;2024-02-16T07:09:45;95325.25;;;2.94;100.00
10946;BME280;5525;42.648;23.368;2024-02-16T07:12:11;95333.25;;;2.89;100.00
10946;BME280;5525;42.648;23.368;2024-02-16T07:14:40;95336.81;;;3.04;100.00
10946;BME280;5525;42.648;23.368;2024-02-16T07:17:07;95329.09;;;3.13;100.00
10946;BME280;5525;42.648;23.368;2024-02-16T07:19:35;95341.72;;;3.42;100.00
10946;BME280;5525;42.648;23.368;2024-02-16T07:22:01;95336.16;;;3.59;100.00
10946;BME280;5525;42.648;23.368;2024-02-16T07:24:28;95327.63;;;3.72;100.00
10946;BME280;5525;42.648;23.368;2024-02-16T07:26:55;95323.66;;;3.75;100.00
10946;BME280;5525;42.648;23.368;2024-02-16T07:29:22;95322.81;;;3.69;100.00
10946;BME280;5525;42.648;23.368;2024-02-16T07:31:50;95328.19;;;3.94;100.00
10946;BME280;5525;42.648;23.368;2024-02-16T07:34:18;95331.16;;;3.98;100.00
10946;BME280;5525;42.648;23.368;2024-02-16T07:36:45;95334.06;;;4.06;100.00
10946;BME280;5525;42.648;23.368;2024-02-16T07:39:12;95332.22;;;4.27;100.00
10946;BME280;5525;42.648;23.368;2024-02-16T07:41:38;95331.44;;;4.01;100.00
10946;BME280;5525;42.648;23.368;2024-02-16T07:44:05;95332.50;;;4.25;100.00
10946;BME280;5525;42.648;23.368;2024-02-16T07:46:32;95339.94;;;4.63;100.00
10946;BME280;5525;42.648;23.368;2024-02-16T07:49:00;95332.94;;;4.72;100.00
10946;BME280;5525;42.648;23.368;2024-02-16T07:51:28;95327.88;;;4.71;100.00
10946;BME280;5525;42.648;23.368;2024-02-16T07:53:55;95334.53;;;4.83;100.00
10946;BME280;5525;42.648;23.368;2024-02-16T07:56:22;95332.69;;;4.84;100.00
10946;BME280;5525;42.648;23.368;2024-02-16T07:58:48;95326.22;;;4.95;100.00
10946;BME280;5525;42.648;23.368;2024-02-16T08:01:15;95329.13;;;5.03;100.00
10946;BME280;5525;42.648;23.368;2024-02-16T08:03:42;95332.53;;;5.24;100.00
10946;BME280;5525;42.648;23.368;2024-02-16T08:06:10;95334.88;;;5.36;100.00
10946;BME280;5525;42.648;23.368;2024-02-16T08:08:37;95331.09;;;5.47;100.00
10946;BME280;5525;42.648;23.368;2024-02-16T08:11:04;95329.13;;;5.62;100.00
10946;BME280;5525;42.648;23.368;2024-02-16T08:13:31;95323.25;;;5.60;100.00
10946;BME280;5525;42.648;23.368;2024-02-16T08:15:57;95331.19;;;5.85;100.00
10946;BME280;5525;42.648;23.368;2024-02-16T08:18:24;95329.19;;;6.01;100.00
10946;BME280;5525;42.648;23.368;2024-02-16T08:20:51;95314.91;;;5.72;100.00
10946;BME280;5525;42.648;23.368;2024-02-16T08:23:19;95327.50;;;6.15;100.00
10946;BME280;5525;42.648;23.368;2024-02-16T08:25:46;95326.56;;;6.29;100.00
10946;BME280;5525;42.648;23.368;2024-02-16T08:28:13;95324.66;;;6.35;100.00
10946;BME280;5525;42.648;23.368;2024-02-16T08:30:40;95327.78;;;6.42;100.00
10946;BME280;5525;42.648;23.368;2024-02-16T08:33:09;95334.88;;;6.28;100.00
10946;BME280;5525;42.648;23.368;2024-02-16T08:35:36;95331.34;;;6.32;100.00
10946;BME280;5525;42.648;23.368;2024-02-16T08:38:03;95332.28;;;6.51;100.00
10946;BME280;5525;42.648;23.368;2024-02-16T08:40:31;95327.41;;;6.82;100.00
10946;BME280;5525;42.648;23.368;2024-02-16T08:42:58;95330.72;;;7.03;100.00
10946;BME280;5525;42.648;23.368;2024-02-16T08:45:27;95324.88;;;6.67;100.00
10946;BME280;5525;42.648;23.368;2024-02-16T08:47:53;95323.50;;;6.69;100.00
10946;BME280;5525;42.648;23.368;2024-02-16T08:50:22;95325.13;;;6.94;100.00
10946;BME280;5525;42.648;23.368;2024-02-16T08:52:50;95315.38;;;7.03;100.00
10946;BME280;5525;42.648;23.368;2024-02-16T08:55:17;95316.75;;;7.01;100.00
10946;BME280;5525;42.648;23.368;2024-02-16T08:57:45;95325.22;;;7.13;100.00
10946;BME280;5525;42.648;23.368;2024-02-16T09:00:15;95325.94;;;7.18;100.00
10946;BME280;5525;42.648;23.368;2024-02-16T09:02:42;95326.06;;;7.08;100.00
10946;BME280;5525;42.648;23.368;2024-02-16T09:05:10;95323.72;;;7.25;100.00
10946;BME280;5525;42.648;23.368;2024-02-16T09:07:37;95330.31;;;7.56;100.00
10946;BME280;5525;42.648;23.368;2024-02-16T09:10:04;95308.47;;;7.21;100.00
10946;BME280;5525;42.648;23.368;2024-02-16T09:12:31;95335.47;;;7.29;100.00
10946;BME280;5525;42.648;23.368;2024-02-16T09:15:00;95333.22;;;7.60;100.00
10946;BME280;5525;42.648;23.368;2024-02-16T09:17:26;95335.28;;;7.86;100.00
10946;BME280;5525;42.648;23.368;2024-02-16T09:19:53;95340.66;;;7.86;100.00
10946;BME280;5525;42.648;23.368;2024-02-16T09:22:20;95335.91;;;7.78;100.00
10946;BME280;5525;42.648;23.368;2024-02-16T09:24:47;95329.69;;;7.83;100.00
10946;BME280;5525;42.648;23.368;2024-02-16T09:27:14;95334.50;;;8.23;100.00
10946;BME280;5525;42.648;23.368;2024-02-16T09:29:41;95332.59;;;8.42;100.00
10946;BME280;5525;42.648;23.368;2024-02-16T09:32:09;95332.13;;;8.53;100.00
10946;BME280;5525;42.648;23.368;2024-02-16T09:34:36;95336.97;;;8.19;100.00
10946;BME280;5525;42.648;23.368;2024-02-16T09:37:03;95335.63;;;8.54;100.00
10946;BME280;5525;42.648;23.368;2024-02-16T09:39:30;95331.19;;;8.44;100.00
10946;BME280;5525;42.648;23.368;2024-02-16T09:41:57;95336.19;;;8.83;100.00
10946;BME280;5525;42.648;23.368;2024-02-16T09:44:24;95333.03;;;9.08;100.00
10946;BME280;5525;42.648;23.368;2024-02-16T09:46:53;95325.25;;;9.20;98.37
10946;BME280;5525;42.648;23.368;2024-02-16T09:49:21;95328.84;;;9.16;96.99
10946;BME280;5525;42.648;23.368;2024-02-16T09:51:48;95331.63;;;8.97;98.28
10946;BME280;5525;42.648;23.368;2024-02-16T09:54:15;95326.03;;;8.94;100.00
10946;BME280;5525;42.648;23.368;2024-02-16T09:56:42;95331.25;;;9.17;98.15
10946;BME280;5525;42.648;23.368;2024-02-16T09:59:10;95323.09;;;8.77;99.44
10946;BME280;5525;42.648;23.368;2024-02-16T10:01:37;95330.72;;;8.88;100.00
10946;BME280;5525;42.648;23.368;2024-02-16T10:04:07;95307.50;;;9.19;97.58
10946;BME280;5525;42.648;23.368;2024-02-16T10:06:47;95316.41;;;9.47;94.92
10946;BME280;5525;42.648;23.368;2024-02-16T10:09:22;95307.38;;;9.65;93.83
10946;BME280;5525;42.648;23.368;2024-02-16T10:11:49;95291.88;;;9.70;91.75
10946;BME280;5525;42.648;23.368;2024-02-16T10:14:16;95300.75;;;10.20;88.94
10946;BME280;5525;42.648;23.368;2024-02-16T10:16:44;95293.13;;;14.48;72.61
10946;BME280;5525;42.648;23.368;2024-02-16T10:19:11;95284.78;;;20.23;45.61
10946;BME280;5525;42.648;23.368;2024-02-16T10:21:38;95292.72;;;23.26;35.02
10946;BME280;5525;42.648;23.368;2024-02-16T10:24:08;95299.13;;;25.75;30.15
10946;BME280;5525;42.648;23.368;2024-02-16T10:26:35;95299.06;;;26.81;26.36
10946;BME280;5525;42.648;23.368;2024-02-16T10:29:05;95289.53;;;26.41;25.05
10946;BME280;5525;42.648;23.368;2024-02-16T10:31:32;95297.09;;;28.55;23.59
10946;BME280;5525;42.648;23.368;2024-02-16T10:34:00;95286.81;;;28.94;23.63
10946;BME280;5525;42.648;23.368;2024-02-16T10:36:31;95286.16;;;31.54;21.85
10946;BME280;5525;42.648;23.368;2024-02-16T10:38:59;95293.63;;;31.45;20.55
10946;BME280;5525;42.648;23.368;2024-02-16T10:41:34;95293.19;;;30.89;19.93
10946;BME280;5525;42.648;23.368;2024-02-16T10:44:01;95295.91;;;31.05;20.57
10946;BME280;5525;42.648;23.368;2024-02-16T10:46:28;95288.38;;;31.47;20.37
10946;BME280;5525;42.648;23.368;2024-02-16T10:48:55;95284.09;;;32.58;19.40
10946;BME280;5525;42.648;23.368;2024-02-16T10:51:24;95286.56;;;32.31;18.64
10946;BME280;5525;42.648;23.368;2024-02-16T10:53:53;95280.72;;;30.93;18.99
10946;BME280;5525;42.648;23.368;2024-02-16T10:56:33;95293.63;;;31.45;19.05
10946;BME280;5525;42.648;23.368;2024-02-16T10:59:01;95285.53;;;31.75;18.10
10946;BME280;5525;42.648;23.368;2024-02-16T11:01:32;95269.44;;;30.36;19.55
10946;BME280;5525;42.648;23.368;2024-02-16T11:04:03;95270.06;;;32.12;18.92
10946;BME280;5525;42.648;23.368;2024-02-16T11:06:30;95269.50;;;32.04;18.26
10946;BME280;5525;42.648;23.368;2024-02-16T11:09:02;95269.09;;;31.65;18.50
10946;BME280;5525;42.648;23.368;2024-02-16T11:11:34;95265.03;;;31.12;19.07
10946;BME280;5525;42.648;23.368;2024-02-16T11:14:01;95258.19;;;31.95;18.56
10946;BME280;5525;42.648;23.368;2024-02-16T11:16:29;95257.72;;;31.72;18.58
10946;BME280;5525;42.648;23.368;2024-02-16T11:18:56;95250.03;;;32.01;18.31
10946;BME280;5525;42.648;23.368;2024-02-16T11:21:23;95269.56;;;30.77;19.39
10946;BME280;5525;42.648;23.368;2024-02-16T11:23:50;95248.09;;;29.03;19.95
10946;BME280;5525;42.648;23.368;2024-02-16T11:26:17;95248.84;;;29.63;19.90
10946;BME280;5525;42.648;23.368;2024-02-16T11:28:45;95248.22;;;29.55;20.05
10946;BME280;5525;42.648;23.368;2024-02-16T11:31:12;95250.16;;;29.38;20.35
10946;BME280;5525;42.648;23.368;2024-02-16T11:33:43;95244.34;;;28.51;21.09
10946;BME280;5525;42.648;23.368;2024-02-16T11:36:11;95234.00;;;28.06;21.13
10946;BME280;5525;42.648;23.368;2024-02-16T11:38:38;95236.69;;;27.86;21.47
10946;BME280;5525;42.648;23.368;2024-02-16T11:41:06;95236.41;;;26.49;22.61
10946;BME280;5525;42.648;23.368;2024-02-16T11:43:34;95231.31;;;28.68;20.90
10946;BME280;5525;42.648;23.368;2024-02-16T11:46:12;95231.97;;;29.53;20.26
10946;BME280;5525;42.648;23.368;2024-02-16T11:48:39;95225.53;;;28.13;21.41
10946;BME280;5525;42.648;23.368;2024-02-16T11:51:06;95234.13;;;27.72;21.70
10946;BME280;5525;42.648;23.368;2024-02-16T11:53:33;95220.63;;;27.47;21.84
10946;BME280;5525;42.648;23.368;2024-02-16T11:56:00;95227.75;;;26.03;23.13
10946;BME280;5525;42.648;23.368;2024-02-16T11:58:27;95218.66;;;27.14;22.34
10946;BME280;5525;42.648;23.368;2024-02-16T12:00:54;95222.13;;;26.14;23.27
10946;BME280;5525;42.648;23.368;2024-02-16T12:03:26;95220.03;;;25.77;22.92
10946;BME280;5525;42.648;23.368;2024-02-16T12:05:55;95208.25;;;26.92;22.53
10946;BME280;5525;42.648;23.368;2024-02-16T12:08:22;95213.09;;;27.71;21.87
10946;BME280;5525;42.648;23.368;2024-02-16T12:10:50;95211.00;;;27.55;21.89
10946;BME280;5525;42.648;23.368;2024-02-16T12:13:18;95210.44;;;27.37;22.19
10946;BME280;5525;42.648;23.368;2024-02-16T12:15:47;95201.19;;;25.00;23.34
10946;BME280;5525;42.648;23.368;2024-02-16T12:18:20;95200.38;;;25.03;24.17
10946;BME280;5525;42.648;23.368;2024-02-16T12:21:01;95202.00;;;22.01;26.97
10946;BME280;5525;42.648;23.368;2024-02-16T12:23:29;95194.19;;;24.74;24.70
10946;BME280;5525;42.648;23.368;2024-02-16T12:25:57;95194.59;;;24.59;24.48
10946;BME280;5525;42.648;23.368;2024-02-16T12:28:25;95191.88;;;24.48;24.80
10946;BME280;5525;42.648;23.368;2024-02-16T12:30:53;95182.16;;;23.74;25.60
10946;BME280;5525;42.648;23.368;2024-02-16T12:33:20;95187.44;;;22.61;26.51
10946;BME280;5525;42.648;23.368;2024-02-16T12:35:47;95171.91;;;22.29;27.25
10946;BME280;5525;42.648;23.368;2024-02-16T12:38:15;95181.41;;;22.45;27.15
10946;BME280;5525;42.648;23.368;2024-02-16T12:40:44;95180.47;;;23.06;26.53
10946;BME280;5525;42.648;23.368;2024-02-16T12:43:11;95190.22;;;21.53;27.83
10946;BME280;5525;42.648;23.368;2024-02-16T12:45:39;95175.66;;;22.75;26.95
10946;BME280;5525;42.648;23.368;2024-02-16T12:48:06;95178.06;;;22.80;26.87
10946;BME280;5525;42.648;23.368;2024-02-16T12:50:35;95172.97;;;22.89;26.81
10946;BME280;5525;42.648;23.368;2024-02-16T12:53:03;95169.19;;;22.32;27.23
10946;BME280;5525;42.648;23.368;2024-02-16T12:55:31;95180.34;;;21.92;27.72
10946;BME280;5525;42.648;23.368;2024-02-16T12:57:58;95175.75;;;21.59;28.10
10946;BME280;5525;42.648;23.368;2024-02-16T13:00:25;95175.50;;;20.91;29.46
10946;BME280;5525;42.648;23.368;2024-02-16T13:02:51;95178.50;;;21.16;29.00